Time;durP1;ratioP1;P1;durP2;ratioP2;P2;SDS_P1;SDS_P2;PMS_P1;PMS_P2;Temp;Humidity;BMP_temperature;BMP_pressure;BME280_temperature;BME280_humidity;BME280_pressure;Samples;Min_cycle;Max_cycle;Signal;HPM_P1;HPM_P2
2023/06/05 00:01:17;;;;;;;11.10;5.00;;;12.30;99.90;;;;;;4973820;28;20202;-75
2023/06/05 00:03:44;;;;;;;7.70;5.82;;;12.30;99.90;;;;;;4964128;28;20719;-77
2023/06/05 00:06:11;;;;;;;9.02;5.45;;;12.40;99.90;;;;;;4964526;28;20670;-77
2023/06/05 00:08:39;;;;;;;10.10;5.60;;;12.30;99.90;;;;;;4966882;28;20202;-77
2023/06/05 00:11:06;;;;;;;7.78;5.93;;;12.30;99.90;;;;;;4968648;28;20246;-78
2023/06/05 00:13:33;;;;;;;10.07;5.97;;;12.20;99.90;;;;;;4969763;28;20308;-77
2023/06/05 00:16:02;;;;;;;9.70;7.88;;;12.20;99.90;;;;;;4965010;28;20205;-77
2023/06/05 00:18:29;;;;;;;7.10;4.97;;;12.20;99.90;;;;;;4965649;28;20211;-76
2023/06/05 00:20:56;;;;;;;5.70;5.20;;;12.20;99.90;;;;;;4967669;28;20245;-75
2023/06/05 00:23:23;;;;;;;9.25;6.97;;;12.20;99.90;;;;;;4967871;28;20312;-76
2023/06/05 00:25:51;;;;;;;8.88;6.32;;;12.20;99.90;;;;;;4968635;28;20205;-75
2023/06/05 00:28:18;;;;;;;8.00;6.22;;;12.10;99.90;;;;;;4965381;28;20227;-75
2023/06/05 00:30:45;;;;;;;7.47;6.05;;;12.20;99.90;;;;;;4964409;28;20217;-74
2023/06/05 00:33:12;;;;;;;7.80;6.30;;;12.10;99.90;;;;;;4966164;28;20233;-77
2023/06/05 00:35:40;;;;;;;6.90;5.70;;;12.10;99.90;;;;;;4965198;28;20206;-76
2023/06/05 00:38:07;;;;;;;11.35;6.20;;;12.10;99.90;;;;;;4968693;28;20252;-77
2023/06/05 00:40:33;;;;;;;10.95;7.35;;;12.00;99.90;;;;;;4966490;28;20212;-77
2023/06/05 00:43:02;;;;;;;9.95;7.13;;;12.00;99.90;;;;;;4966814;28;20308;-76
2023/06/05 00:45:29;;;;;;;9.52;7.07;;;12.00;99.90;;;;;;4973196;28;20202;-77
2023/06/05 00:47:56;;;;;;;12.50;7.38;;;12.00;99.90;;;;;;4965700;28;20213;-76
2023/06/05 00:50:24;;;;;;;9.15;6.20;;;11.90;99.90;;;;;;4971213;28;20573;-76
2023/06/05 00:52:53;;;;;;;8.90;6.60;;;11.90;99.90;;;;;;4971461;28;20229;-78
2023/06/05 00:55:20;;;;;;;8.55;6.13;;;11.90;99.90;;;;;;4974718;28;20203;-75
2023/06/05 00:57:54;;;;;;;11.93;6.85;;;11.90;99.90;;;;;;4971167;28;20216;-77
2023/06/05 01:00:23;;;;;;;9.55;6.10;;;11.80;99.90;;;;;;4969935;28;20229;-75
2023/06/05 01:02:53;;;;;;;11.02;6.88;;;11.80;99.90;;;;;;4964736;28;20284;-75
2023/06/05 01:05:20;;;;;;;9.98;6.70;;;11.80;99.90;;;;;;4969705;28;20212;-74
2023/06/05 01:07:48;;;;;;;8.25;6.53;;;11.80;99.90;;;;;;4969148;28;20321;-76
2023/06/05 01:10:16;;;;;;;11.63;6.70;;;11.70;99.90;;;;;;4965019;28;20224;-75
2023/06/05 01:12:47;;;;;;;12.88;7.68;;;11.70;99.90;;;;;;4967126;28;20254;-76
2023/06/05 01:15:15;;;;;;;10.60;7.43;;;11.70;99.90;;;;;;4968712;28;20747;-76
2023/06/05 01:17:47;;;;;;;10.93;8.43;;;11.70;99.90;;;;;;4967553;28;20207;-77
2023/06/05 01:20:14;;;;;;;10.02;6.65;;;11.70;99.90;;;;;;4964191;28;20552;-76
2023/06/05 01:22:41;;;;;;;10.65;6.68;;;11.70;99.90;;;;;;4965073;28;20251;-75
2023/06/05 01:25:11;;;;;;;11.40;7.60;;;11.60;99.90;;;;;;4965520;28;20324;-77
2023/06/05 01:27:45;;;;;;;7.82;6.03;;;11.60;99.90;;;;;;4960207;28;20235;-78
2023/06/05 01:30:19;;;;;;;8.05;6.50;;;11.60;99.90;;;;;;4964503;28;20686;-78
2023/06/05 01:32:56;;;;;;;8.75;6.90;;;11.50;99.90;;;;;;4958454;28;20271;-75
2023/06/05 01:35:27;;;;;;;14.82;9.10;;;11.50;99.90;;;;;;4962532;28;20250;-75
2023/06/05 01:37:57;;;;;;;8.07;6.22;;;11.50;99.90;;;;;;4964744;28;20586;-77
2023/06/05 01:40:26;;;;;;;9.25;7.50;;;11.50;99.90;;;;;;4960074;28;20288;-75
2023/06/05 01:42:56;;;;;;;9.35;7.30;;;11.50;99.90;;;;;;4966383;28;20228;-78
2023/06/05 01:45:24;;;;;;;10.57;6.80;;;11.50;99.90;;;;;;4961063;28;20205;-77
2023/06/05 01:47:51;;;;;;;9.35;8.02;;;11.50;99.90;;;;;;4962903;28;20708;-76
2023/06/05 01:50:19;;;;;;;10.50;7.20;;;11.50;99.90;;;;;;4964855;28;20295;-79
2023/06/05 01:52:47;;;;;;;11.70;7.55;;;11.50;99.90;;;;;;4964251;28;20306;-75
2023/06/05 01:55:16;;;;;;;10.40;7.40;;;11.40;99.90;;;;;;4965666;28;20207;-76
2023/06/05 01:57:45;;;;;;;9.77;7.15;;;11.50;99.90;;;;;;4963682;28;20306;-78
2023/06/05 02:00:15;;;;;;;11.40;9.02;;;11.40;99.90;;;;;;4969290;28;20203;-76
2023/06/05 02:02:42;;;;;;;10.38;7.57;;;11.40;99.90;;;;;;4971853;28;20232;-76
2023/06/05 02:05:10;;;;;;;13.48;8.00;;;11.40;99.90;;;;;;4966767;28;20290;-78
2023/06/05 02:07:39;;;;;;;9.63;8.02;;;11.40;99.90;;;;;;4968928;28;20219;-78
2023/06/05 02:10:08;;;;;;;11.32;7.80;;;11.30;99.90;;;;;;4964188;28;20220;-76
2023/06/05 02:12:37;;;;;;;11.68;8.40;;;11.30;99.90;;;;;;4968581;28;20231;-78
2023/06/05 02:15:06;;;;;;;15.63;8.25;;;11.30;99.90;;;;;;4968206;28;20587;-76
2023/06/05 02:17:34;;;;;;;11.80;7.57;;;11.30;99.90;;;;;;4970677;28;20723;-78
2023/06/05 02:20:01;;;;;;;12.75;7.47;;;11.30;99.90;;;;;;4970181;28;20214;-77
2023/06/05 02:22:28;;;;;;;11.43;8.75;;;11.30;99.90;;;;;;4974110;28;20289;-76
2023/06/05 02:24:55;;;;;;;13.07;8.05;;;11.30;99.90;;;;;;4970764;28;20298;-77
2023/06/05 02:27:24;;;;;;;9.75;7.18;;;11.30;99.90;;;;;;4968031;28;20211;-79
2023/06/05 02:29:51;;;;;;;12.95;7.55;;;11.20;99.90;;;;;;4974722;28;20308;-78
2023/06/05 02:32:19;;;;;;;11.07;9.45;;;11.20;99.90;;;;;;4968031;28;20607;-77
2023/06/05 02:34:47;;;;;;;11.43;8.10;;;11.20;99.90;;;;;;4967707;28;20205;-77
2023/06/05 02:37:15;;;;;;;9.95;7.65;;;11.20;99.90;;;;;;4967609;28;20201;-76
2023/06/05 02:39:42;;;;;;;12.90;8.27;;;11.20;99.90;;;;;;4971846;28;20294;-75
2023/06/05 02:42:09;;;;;;;11.32;7.60;;;11.20;99.90;;;;;;4976944;28;20219;-76
2023/06/05 02:44:36;;;;;;;11.93;7.65;;;11.10;99.90;;;;;;4983763;28;20210;-77
2023/06/05 02:47:03;;;;;;;14.85;10.40;;;11.20;99.90;;;;;;4980221;28;20875;-75
2023/06/05 02:49:32;;;;;;;11.40;8.40;;;11.20;99.90;;;;;;4962302;28;20210;-77
2023/06/05 02:51:59;;;;;;;12.07;8.80;;;11.20;99.90;;;;;;4964575;28;20227;-76
2023/06/05 02:54:28;;;;;;;10.57;8.40;;;11.10;99.90;;;;;;4970326;28;20209;-78
2023/06/05 02:56:56;;;;;;;10.45;7.63;;;11.10;99.90;;;;;;4973031;28;20215;-76
2023/06/05 02:59:24;;;;;;;14.27;7.47;;;11.10;99.90;;;;;;4972124;28;20199;-76
2023/06/05 03:01:52;;;;;;;11.35;7.80;;;11.10;99.90;;;;;;4972552;28;20283;-76
2023/06/05 03:04:20;;;;;;;12.02;8.10;;;11.10;99.90;;;;;;4969632;28;20221;-77
2023/06/05 03:06:49;;;;;;;9.40;8.02;;;11.10;99.90;;;;;;4975373;28;20214;-74
2023/06/05 03:09:16;;;;;;;13.57;7.90;;;11.10;99.90;;;;;;4975189;28;20203;-76
2023/06/05 03:11:44;;;;;;;12.27;8.65;;;11.10;99.90;;;;;;4968275;28;20637;-76
2023/06/05 03:14:11;;;;;;;11.23;8.40;;;11.10;99.90;;;;;;4969522;28;20210;-77
2023/06/05 03:16:41;;;;;;;13.07;9.18;;;11.10;99.90;;;;;;4968298;28;20744;-77
2023/06/05 03:19:08;;;;;;;11.63;8.60;;;11.10;99.90;;;;;;4975079;28;20260;-77
2023/06/05 03:21:37;;;;;;;14.98;10.00;;;11.10;99.90;;;;;;4970329;28;20538;-77
2023/06/05 03:24:07;;;;;;;13.57;8.18;;;11.10;99.90;;;;;;4966265;28;20213;-77
2023/06/05 03:26:35;;;;;;;11.98;8.68;;;11.20;99.90;;;;;;4967173;28;20204;-75
2023/06/05 03:29:01;;;;;;;13.75;9.10;;;11.20;99.90;;;;;;4963306;28;20212;-78
2023/06/05 03:31:29;;;;;;;15.45;7.97;;;11.30;99.90;;;;;;4971817;28;20217;-76
2023/06/05 03:33:55;;;;;;;11.98;8.82;;;11.20;99.90;;;;;;4965864;28;20236;-76
2023/06/05 03:36:22;;;;;;;14.38;8.90;;;11.30;99.90;;;;;;4969425;28;20231;-77
2023/06/05 03:38:49;;;;;;;13.77;9.55;;;11.30;99.90;;;;;;4972749;28;20206;-77
2023/06/05 03:41:18;;;;;;;13.95;9.48;;;11.30;99.90;;;;;;4974351;28;20225;-77
2023/06/05 03:43:44;;;;;;;10.68;8.20;;;11.30;99.90;;;;;;4969851;28;20253;-77
2023/06/05 03:46:18;;;;;;;12.20;8.20;;;11.40;99.90;;;;;;4976709;28;20211;-77
2023/06/05 03:48:45;;;;;;;13.82;9.00;;;11.50;99.90;;;;;;4966487;28;20648;-77
2023/06/05 03:51:13;;;;;;;12.48;7.57;;;11.40;99.90;;;;;;4964042;28;20300;-79
2023/06/05 03:53:43;;;;;;;15.15;8.40;;;11.40;99.90;;;;;;4966776;28;20221;-75
2023/06/05 03:56:10;;;;;;;10.02;7.97;;;11.50;99.90;;;;;;4961017;28;20222;-76
2023/06/05 03:58:39;;;;;;;10.00;7.75;;;11.50;99.90;;;;;;4968705;28;20244;-77
2023/06/05 04:01:06;;;;;;;12.20;9.15;;;11.60;99.90;;;;;;4973478;28;20205;-76
2023/06/05 04:03:37;;;;;;;11.77;8.30;;;11.70;99.90;;;;;;4963113;28;20288;-77
2023/06/05 04:06:04;;;;;;;14.00;10.55;;;11.70;99.90;;;;;;4973469;28;20704;-76
2023/06/05 04:08:32;;;;;;;11.52;9.32;;;11.90;99.90;;;;;;4965949;28;20202;-75
2023/06/05 04:10:59;;;;;;;12.77;8.80;;;12.30;99.90;;;;;;4966988;28;20226;-75
2023/06/05 04:13:26;;;;;;;13.23;8.80;;;12.70;99.90;;;;;;4964441;28;20229;-78
2023/06/05 04:15:54;;;;;;;13.35;9.43;;;13.20;99.90;;;;;;4982025;28;20206;-75
2023/06/05 04:18:22;;;;;;;11.75;7.80;;;13.70;99.90;;;;;;4977449;28;20233;-77
2023/06/05 04:20:49;;;;;;;12.63;6.90;;;14.10;99.90;;;;;;4963952;28;20210;-79
2023/06/05 04:23:16;;;;;;;9.52;6.82;;;14.60;99.90;;;;;;4967347;28;20225;-76
2023/06/05 04:25:45;;;;;;;11.05;8.07;;;15.00;99.90;;;;;;4965774;28;20285;-75
2023/06/05 04:28:12;;;;;;;15.77;7.63;;;15.50;99.90;;;;;;4978882;28;20223;-75
2023/06/05 04:30:39;;;;;;;9.95;7.55;;;15.80;99.90;;;;;;4970123;28;20216;-75
2023/06/05 04:33:24;;;;;;;12.02;7.10;;;16.40;99.90;;;;;;4982979;28;20236;-76
2023/06/05 04:35:53;;;;;;;11.13;7.53;;;16.70;99.90;;;;;;4975674;28;20285;-76
2023/06/05 04:38:20;;;;;;;8.80;7.40;;;17.20;99.90;;;;;;4969850;28;20447;-77
2023/06/05 04:40:48;;;;;;;7.97;7.17;;;17.40;99.90;;;;;;4967293;28;20462;-77
2023/06/05 04:43:16;;;;;;;9.60;7.40;;;17.70;99.90;;;;;;4976855;28;20871;-77
2023/06/05 04:45:42;;;;;;;10.80;7.80;;;17.90;99.90;;;;;;4976427;28;20457;-77
2023/06/05 04:48:11;;;;;;;9.63;8.10;;;18.20;99.90;;;;;;4968181;28;20469;-75
2023/06/05 04:50:39;;;;;;;8.47;7.67;;;18.60;99.90;;;;;;4970356;28;20495;-78
2023/06/05 04:53:07;;;;;;;11.93;8.03;;;18.70;99.90;;;;;;4976973;28;21045;-77
2023/06/05 04:55:34;;;;;;;9.23;7.40;;;19.00;99.90;;;;;;4971749;28;20449;-76
2023/06/05 04:58:01;;;;;;;11.70;7.40;;;19.40;99.90;;;;;;4968909;28;20449;-77
2023/06/05 05:00:28;;;;;;;9.90;6.77;;;19.60;99.50;;;;;;4970615;28;20516;-76
2023/06/05 05:02:56;;;;;;;8.70;6.93;;;20.00;98.70;;;;;;4964594;28;20484;-78
2023/06/05 05:05:23;;;;;;;10.17;7.77;;;20.10;97.60;;;;;;4968694;28;20467;-78
2023/06/05 05:07:53;;;;;;;7.60;6.40;;;20.50;96.30;;;;;;4965953;28;20466;-76
2023/06/05 05:10:20;;;;;;;7.37;6.53;;;20.90;95.60;;;;;;4968970;28;20453;-76
2023/06/05 05:12:46;;;;;;;6.90;5.50;;;21.20;94.30;;;;;;4962364;28;20556;-76
2023/06/05 05:15:13;;;;;;;9.73;6.77;;;21.80;93.30;;;;;;4967079;28;20530;-76
2023/06/05 05:17:40;;;;;;;8.00;6.97;;;22.00;92.10;;;;;;4969725;28;20460;-75
2023/06/05 05:20:08;;;;;;;5.37;4.83;;;21.70;91.80;;;;;;4966351;28;20548;-76
2023/06/05 05:22:35;;;;;;;7.93;6.43;;;22.10;92.10;;;;;;4964516;28;20466;-78
2023/06/05 05:25:03;;;;;;;8.83;6.53;;;22.40;91.00;;;;;;4971600;28;20446;-78
2023/06/05 05:27:30;;;;;;;8.73;6.10;;;22.60;90.60;;;;;;4969574;28;20544;-75
2023/06/05 05:29:57;;;;;;;7.27;6.10;;;23.00;90.20;;;;;;4968565;28;20529;-76
2023/06/05 05:32:24;;;;;;;15.90;7.50;;;23.20;89.30;;;;;;4968352;28;20505;-75
2023/06/05 05:34:51;;;;;;;6.90;5.60;;;23.30;88.50;;;;;;4964793;28;20594;-77
2023/06/05 05:37:18;;;;;;;9.03;5.57;;;23.40;87.80;;;;;;4964145;28;20466;-76
2023/06/05 05:39:45;;;;;;;12.93;7.53;;;23.60;86.90;;;;;;4975506;28;20489;-78
2023/06/05 05:42:14;;;;;;;12.30;7.00;;;23.80;87.00;;;;;;4964300;28;20590;-79
2023/06/05 05:44:43;;;;;;;10.27;6.57;;;24.10;85.90;;;;;;4969654;28;20505;-78
2023/06/05 05:47:10;;;;;;;11.40;6.50;;;24.00;85.30;;;;;;4967854;28;20521;-78
2023/06/05 05:49:38;;;;;;;10.60;6.60;;;24.00;85.50;;;;;;4970508;28;20797;-77
2023/06/05 05:52:05;;;;;;;6.53;5.83;;;24.20;85.00;;;;;;4967812;28;20489;-77
2023/06/05 05:54:32;;;;;;;8.70;5.77;;;24.40;84.70;;;;;;4970074;28;20544;-78
2023/06/05 05:57:00;;;;;;;7.60;6.23;;;24.70;83.50;;;;;;4966304;28;20530;-80
2023/06/05 05:59:28;;;;;;;8.73;6.80;;;24.90;83.30;;;;;;4968856;28;20890;-78
2023/06/05 06:01:58;;;;;;;8.80;6.97;;;25.20;82.50;;;;;;4969609;28;20537;-77
2023/06/05 06:04:26;;;;;;;9.90;6.90;;;25.40;81.60;;;;;;4969756;28;20539;-78
2023/06/05 06:06:56;;;;;;;12.53;6.27;;;25.30;80.70;;;;;;4972154;28;20529;-79
2023/06/05 06:09:23;;;;;;;7.87;5.90;;;25.60;81.00;;;;;;4968997;28;20874;-76
2023/06/05 06:11:49;;;;;;;7.93;6.60;;;26.10;80.20;;;;;;4963312;28;20844;-77
2023/06/05 06:14:16;;;;;;;8.70;6.30;;;26.40;78.80;;;;;;4970347;28;20536;-78
2023/06/05 06:17:05;;;;;;;11.83;7.50;;;26.70;78.10;;;;;;4987058;28;20456;-77
2023/06/05 06:19:32;;;;;;;8.13;6.20;;;27.00;77.00;;;;;;4964372;28;20464;-78
2023/06/05 06:22:00;;;;;;;9.13;6.50;;;27.00;76.40;;;;;;4971374;28;20647;-76
2023/06/05 06:24:27;;;;;;;9.30;7.03;;;27.20;76.60;;;;;;4964047;28;20959;-77
2023/06/05 06:26:54;;;;;;;6.73;6.00;;;27.50;75.80;;;;;;4968865;28;20521;-77
2023/06/05 06:29:23;;;;;;;13.07;6.93;;;27.40;75.30;;;;;;4970556;28;20450;-78
2023/06/05 06:31:50;;;;;;;8.70;5.73;;;27.50;75.20;;;;;;4970022;28;20477;-78
2023/06/05 06:34:19;;;;;;;8.70;6.80;;;27.60;75.20;;;;;;4979229;28;20458;-76
2023/06/05 06:36:46;;;;;;;8.67;7.87;;;27.70;74.70;;;;;;4971205;28;20445;-77
2023/06/05 06:39:14;;;;;;;12.80;6.40;;;27.90;73.90;;;;;;4969366;28;20473;-79
2023/06/05 06:41:40;;;;;;;7.80;6.93;;;27.70;74.30;;;;;;4969204;28;20445;-76
2023/06/05 06:44:07;;;;;;;9.30;7.10;;;28.00;73.90;;;;;;4977625;28;20527;-77
2023/06/05 06:46:34;;;;;;;10.43;7.13;;;28.10;73.10;;;;;;4968947;28;20540;-78
2023/06/05 06:49:01;;;;;;;12.57;6.37;;;28.20;73.00;;;;;;4973612;28;20473;-76
2023/06/05 06:51:30;;;;;;;9.50;6.43;;;28.40;72.60;;;;;;4973411;28;20532;-76
2023/06/05 06:53:57;;;;;;;9.33;6.50;;;28.50;72.00;;;;;;4974299;28;20557;-76
2023/06/05 06:56:25;;;;;;;8.50;5.90;;;28.60;72.40;;;;;;4972347;28;20446;-77
2023/06/05 06:58:54;;;;;;;7.40;6.40;;;28.60;72.20;;;;;;4968587;28;20517;-73
2023/06/05 07:01:20;;;;;;;8.03;7.23;;;28.50;72.40;;;;;;4973617;28;20504;-79
2023/06/05 07:03:47;;;;;;;8.57;6.60;;;28.60;72.40;;;;;;4970571;28;20467;-78
2023/06/05 07:06:15;;;;;;;10.97;8.07;;;28.70;72.50;;;;;;4972984;28;20533;-79
2023/06/05 07:08:46;;;;;;;8.23;6.80;;;29.10;71.90;;;;;;4967115;28;20458;-78
2023/06/05 07:11:15;;;;;;;10.20;7.50;;;29.20;71.00;;;;;;4971532;28;20520;-77
2023/06/05 07:13:42;;;;;;;11.70;7.03;;;29.40;71.30;;;;;;4973085;28;20476;-75
2023/06/05 07:16:09;;;;;;;7.00;5.97;;;30.00;69.60;;;;;;4968447;28;20473;-77
2023/06/05 07:18:37;;;;;;;8.83;6.17;;;30.10;69.10;;;;;;4967197;28;20476;-79
2023/06/05 07:21:05;;;;;;;9.47;6.10;;;30.00;68.60;;;;;;4966877;28;20482;-77
2023/06/05 07:23:33;;;;;;;7.43;6.70;;;29.70;69.30;;;;;;4971523;28;20957;-76
2023/06/05 07:26:01;;;;;;;9.43;7.20;;;29.70;69.30;;;;;;4963583;28;20459;-80
2023/06/05 07:28:28;;;;;;;9.47;6.87;;;29.90;68.70;;;;;;4961405;28;20521;-78
2023/06/05 07:30:55;;;;;;;7.60;5.60;;;30.10;68.50;;;;;;4962273;28;20473;-78
2023/06/05 07:33:22;;;;;;;7.87;7.07;;;30.10;68.20;;;;;;4969785;28;20508;-80
2023/06/05 07:35:50;;;;;;;10.13;5.60;;;30.00;68.10;;;;;;4965009;28;20451;-78
2023/06/05 07:38:17;;;;;;;9.27;7.23;;;29.90;68.70;;;;;;4971739;28;20496;-75
2023/06/05 07:40:43;;;;;;;8.80;6.43;;;30.10;68.30;;;;;;4974983;28;20996;-77
2023/06/05 07:43:14;;;;;;;7.10;6.10;;;30.30;68.00;;;;;;4976512;28;21062;-79
2023/06/05 07:45:41;;;;;;;12.03;7.20;;;29.90;68.20;;;;;;4968023;28;20451;-76
2023/06/05 07:48:08;;;;;;;11.13;6.80;;;30.20;67.60;;;;;;4972392;28;20457;-76
2023/06/05 07:50:35;;;;;;;8.00;5.73;;;30.30;67.60;;;;;;4969237;28;20576;-75
2023/06/05 07:53:02;;;;;;;8.50;6.10;;;30.50;67.50;;;;;;4963778;28;20581;-77
2023/06/05 07:55:29;;;;;;;9.17;6.70;;;30.60;67.30;;;;;;4972005;28;20481;-77
2023/06/05 07:57:57;;;;;;;8.53;6.70;;;30.90;66.00;;;;;;4974321;28;20453;-74
2023/06/05 08:00:28;;;;;;;8.67;6.60;;;31.10;65.80;;;;;;4983419;28;20454;-76
2023/06/05 08:02:57;;;;;;;15.57;7.97;;;31.30;65.80;;;;;;4975077;28;20492;-77
2023/06/05 08:05:23;;;;;;;9.73;5.57;;;31.00;65.20;;;;;;4980356;28;20826;-74
2023/06/05 08:07:51;;;;;;;9.83;6.43;;;31.10;65.60;;;;;;4974049;28;20446;-78
2023/06/05 08:10:18;;;;;;;11.27;6.90;;;31.50;64.90;;;;;;4975155;28;20449;-79
2023/06/05 08:12:45;;;;;;;13.90;6.30;;;31.80;65.10;;;;;;4977772;28;20575;-77
2023/06/05 08:15:12;;;;;;;7.47;6.77;;;32.10;63.60;;;;;;4976827;28;20433;-77
2023/06/05 08:17:40;;;;;;;8.70;5.80;;;32.40;62.20;;;;;;4972316;28;20475;-77
2023/06/05 08:20:10;;;;;;;11.70;6.97;;;32.60;61.30;;;;;;4971099;28;20449;-78
2023/06/05 08:22:39;;;;;;;5.97;4.80;;;32.90;61.30;;;;;;4966564;28;20485;-77
2023/06/05 08:25:07;;;;;;;6.70;6.00;;;32.60;61.50;;;;;;4963925;28;20921;-80
2023/06/05 08:27:35;;;;;;;8.90;6.27;;;32.20;61.30;;;;;;4962884;28;20454;-74
2023/06/05 08:30:01;;;;;;;11.27;9.13;;;32.10;62.10;;;;;;4964687;28;21104;-79
2023/06/05 08:32:28;;;;;;;9.80;6.60;;;32.20;61.40;;;;;;4964815;28;20922;-78
2023/06/05 08:34:57;;;;;;;11.50;6.63;;;32.20;61.90;;;;;;4971077;28;20481;-76
2023/06/05 08:37:23;;;;;;;9.00;6.00;;;32.10;62.00;;;;;;4971988;28;20458;-75
2023/06/05 08:39:50;;;;;;;8.70;6.30;;;32.60;60.80;;;;;;4965944;28;20485;-78
2023/06/05 08:42:20;;;;;;;10.90;6.10;;;32.70;60.60;;;;;;4967777;28;20465;-75
2023/06/05 08:44:48;;;;;;;13.70;6.20;;;32.30;60.50;;;;;;4966084;28;20477;-77
2023/06/05 08:47:16;;;;;;;22.87;9.40;;;32.30;61.30;;;;;;4967921;28;20508;-70
2023/06/05 08:49:43;;;;;;;6.13;5.53;;;32.00;61.20;;;;;;4969773;28;20446;-71
2023/06/05 08:52:14;;;;;;;11.90;6.53;;;32.00;60.50;;;;;;4964549;28;20642;-70
2023/06/05 08:54:41;;;;;;;9.73;6.00;;;32.00;61.20;;;;;;4969227;28;20438;-72
2023/06/05 08:57:10;;;;;;;5.40;4.90;;;31.80;61.50;;;;;;4961739;28;20446;-76
2023/06/05 08:59:38;;;;;;;5.47;4.73;;;31.90;60.40;;;;;;4971278;28;20459;-76
2023/06/05 09:02:05;;;;;;;7.00;5.40;;;32.50;59.60;;;;;;4964055;28;20477;-76
2023/06/05 09:04:32;;;;;;;6.40;5.60;;;32.70;59.70;;;;;;4973253;28;20495;-78
2023/06/05 09:07:00;;;;;;;7.07;4.70;;;32.80;59.20;;;;;;4971826;28;20456;-73
2023/06/05 09:09:28;;;;;;;6.63;4.57;;;32.70;58.50;;;;;;4970659;28;20449;-74
2023/06/05 09:12:07;;;;;;;6.80;4.93;;;33.20;57.60;;;;;;4966855;28;20516;-77
2023/06/05 09:14:35;;;;;;;10.40;5.20;;;33.20;57.20;;;;;;4967175;28;20981;-76
2023/06/05 09:17:03;;;;;;;4.73;4.33;;;32.60;58.40;;;;;;4970771;28;20441;-75
2023/06/05 09:19:38;;;;;;;5.50;4.77;;;32.80;57.90;;;;;;4963384;28;20431;-74
2023/06/05 09:22:06;;;;;;;15.50;5.50;;;33.10;57.30;;;;;;4964496;28;20461;-76
2023/06/05 09:24:35;;;;;;;8.00;5.13;;;33.50;57.50;;;;;;4970201;28;20473;-75
2023/06/05 09:27:05;;;;;;;5.60;4.30;;;32.90;57.50;;;;;;4972284;28;20562;-75
2023/06/05 09:29:33;;;;;;;6.10;4.70;;;32.90;57.60;;;;;;4971741;28;20460;-75
2023/06/05 09:32:03;;;;;;;6.97;4.33;;;32.60;57.50;;;;;;4978605;28;20580;-76
2023/06/05 09:34:31;;;;;;;7.37;5.30;;;32.20;58.30;;;;;;4963874;28;20946;-77
2023/06/05 09:37:00;;;;;;;6.00;5.50;;;31.80;58.70;;;;;;4975687;28;20954;-75
2023/06/05 09:39:27;;;;;;;7.10;5.67;;;31.50;59.30;;;;;;4972127;28;20445;-76
2023/06/05 09:41:57;;;;;;;9.83;5.40;;;31.40;59.60;;;;;;4976065;28;20444;-76
2023/06/05 09:44:26;;;;;;;9.53;4.80;;;31.00;59.60;;;;;;4982725;28;20441;-77
2023/06/05 09:46:56;;;;;;;8.90;5.97;;;31.00;60.90;;;;;;4975544;28;20457;-79
2023/06/05 09:49:26;;;;;;;7.50;4.57;;;31.00;60.90;;;;;;4976458;28;20489;-76
2023/06/05 09:51:53;;;;;;;5.17;4.50;;;30.90;61.00;;;;;;4971859;28;20502;-79
2023/06/05 09:54:22;;;;;;;8.20;5.50;;;31.00;60.80;;;;;;4975018;28;20481;-74
2023/06/05 09:56:50;;;;;;;6.93;5.23;;;31.50;59.60;;;;;;4973182;28;20536;-74
2023/06/05 09:59:22;;;;;;;5.43;4.40;;;32.00;58.70;;;;;;4966599;28;20454;-77
2023/06/05 10:01:51;;;;;;;7.30;5.00;;;32.10;57.70;;;;;;4973664;28;20453;-78
2023/06/05 10:04:21;;;;;;;6.77;4.90;;;31.90;57.80;;;;;;4998386;28;20457;-77
2023/06/05 10:06:49;;;;;;;8.60;4.47;;;31.20;58.40;;;;;;4986293;28;20941;-77
2023/06/05 10:09:17;;;;;;;9.70;4.43;;;31.10;59.60;;;;;;4977911;28;20533;-76
2023/06/05 10:11:44;;;;;;;6.30;4.87;;;31.20;59.30;;;;;;4973155;28;20488;-76
2023/06/05 10:14:12;;;;;;;6.97;4.00;;;31.20;59.70;;;;;;4980570;28;20441;-75
2023/06/05 10:16:41;;;;;;;7.57;5.00;;;31.10;59.70;;;;;;4979334;28;20944;-77
2023/06/05 10:19:09;;;;;;;10.83;4.50;;;31.10;60.60;;;;;;4968879;28;20465;-76
2023/06/05 10:21:36;;;;;;;9.50;5.20;;;31.20;60.00;;;;;;4968183;28;20454;-73
2023/06/05 10:24:06;;;;;;;8.30;4.83;;;30.80;59.80;;;;;;4973211;28;20443;-74
2023/06/05 10:27:09;;;;;;;5.43;4.93;;;30.50;61.30;;;;;;4971743;28;20899;-75
2023/06/05 10:29:55;;;;;;;6.00;4.73;;;30.20;62.40;;;;;;4969431;28;20457;-76
2023/06/05 10:32:37;;;;;;;8.13;5.50;;;30.40;62.40;;;;;;4977519;28;20483;-75
2023/06/05 10:35:14;;;;;;;5.87;5.30;;;30.50;61.60;;;;;;4984218;28;20446;-77
2023/06/05 10:37:55;;;;;;;9.00;4.77;;;30.20;63.20;;;;;;4979132;28;20459;-74
2023/06/05 10:40:24;;;;;;;6.60;4.83;;;29.50;63.90;;;;;;4968934;28;20489;-76
2023/06/05 10:42:51;;;;;;;10.23;6.60;;;29.00;65.30;;;;;;4973432;28;20465;-77
2023/06/05 10:45:31;;;;;;;6.33;4.40;;;28.50;66.50;;;;;;4968546;28;20492;-76
2023/06/05 10:48:00;;;;;;;9.40;5.13;;;27.80;68.10;;;;;;4972011;28;20446;-75
2023/06/05 10:50:31;;;;;;;5.20;4.70;;;27.40;69.00;;;;;;4978576;28;20826;-77
2023/06/05 10:52:58;;;;;;;9.53;5.00;;;27.20;70.20;;;;;;4970577;28;20485;-72
2023/06/05 10:55:27;;;;;;;4.97;4.07;;;27.00;70.30;;;;;;4972585;28;20458;-76
2023/06/05 10:58:06;;;;;;;7.67;3.80;;;27.10;70.30;;;;;;4973821;28;20451;-73
2023/06/05 11:00:34;;;;;;;7.80;5.53;;;27.20;70.80;;;;;;4973586;28;20446;-75
2023/06/05 11:03:02;;;;;;;9.80;5.87;;;27.10;70.20;;;;;;4976728;28;20501;-75
2023/06/05 11:05:30;;;;;;;5.70;4.87;;;26.80;71.50;;;;;;4974239;28;20921;-72
2023/06/05 11:08:15;;;;;;;5.27;4.77;;;26.70;72.50;;;;;;4974415;28;20461;-75
2023/06/05 11:11:04;;;;;;;6.03;5.37;;;26.60;71.00;;;;;;4970500;28;20457;-76
2023/06/05 11:13:54;;;;;;;6.97;4.30;;;26.60;70.70;;;;;;4973231;28;20600;-72
2023/06/05 11:16:28;;;;;;;5.73;4.70;;;26.60;71.20;;;;;;4970162;28;20533;-74
2023/06/05 11:19:35;;;;;;;10.40;4.90;;;26.70;71.20;;;;;;4968837;28;20456;-75
2023/06/05 11:22:09;;;;;;;7.13;6.40;;;26.70;71.50;;;;;;4966524;28;20569;-75
2023/06/05 11:24:36;;;;;;;5.73;4.60;;;26.70;71.80;;;;;;4970589;28;20433;-72
2023/06/05 11:27:05;;;;;;;6.80;5.17;;;26.60;71.50;;;;;;4972352;28;20513;-74
2023/06/05 11:29:32;;;;;;;7.23;4.80;;;26.50;71.30;;;;;;4972530;28;20454;-74
2023/06/05 11:32:00;;;;;;;5.43;4.93;;;26.40;71.60;;;;;;4972802;28;20556;-72
2023/06/05 11:34:29;;;;;;;6.23;4.50;;;26.20;72.20;;;;;;4971576;28;20863;-74
2023/06/05 11:36:57;;;;;;;5.83;4.27;;;26.10;73.90;;;;;;4972278;28;20443;-76
2023/06/05 11:39:29;;;;;;;9.57;5.10;;;26.10;73.70;;;;;;4966519;28;20466;-73
2023/06/05 11:41:57;;;;;;;8.03;5.30;;;25.90;74.10;;;;;;4965231;28;20466;-73
2023/06/05 11:44:36;;;;;;;5.47;4.47;;;26.00;74.50;;;;;;4966521;28;20492;-75
2023/06/05 11:47:03;;;;;;;13.93;5.60;;;26.00;73.50;;;;;;4972779;28;20472;-75
2023/06/05 11:49:31;;;;;;;5.10;3.83;;;26.10;73.60;;;;;;4961264;28;20454;-72
2023/06/05 11:51:58;;;;;;;5.83;4.07;;;26.10;73.80;;;;;;4962489;28;21214;-75
2023/06/05 11:54:30;;;;;;;7.20;4.50;;;26.10;72.80;;;;;;4968430;28;20489;-71
2023/06/05 11:56:59;;;;;;;9.00;4.13;;;26.20;73.10;;;;;;4966987;28;20442;-71
2023/06/05 11:59:26;;;;;;;6.40;4.30;;;26.30;72.90;;;;;;4966558;28;20478;-72
2023/06/05 12:01:54;;;;;;;6.57;4.03;;;26.40;72.80;;;;;;4980603;28;20439;-71
2023/06/05 12:04:21;;;;;;;7.37;5.30;;;26.30;72.80;;;;;;4967971;28;20473;-72
2023/06/05 12:06:51;;;;;;;6.37;4.70;;;26.10;72.40;;;;;;4965966;28;20957;-72
2023/06/05 12:09:18;;;;;;;6.00;4.50;;;26.00;72.80;;;;;;4969192;28;20489;-74
2023/06/05 12:11:45;;;;;;;8.33;5.30;;;26.10;73.00;;;;;;4962815;28;20441;-75
2023/06/05 12:14:29;;;;;;;7.33;4.83;;;26.10;72.80;;;;;;4971767;28;20576;-73
2023/06/05 12:16:56;;;;;;;6.27;4.13;;;26.10;72.60;;;;;;4965690;28;21010;-72
2023/06/05 12:19:23;;;;;;;4.37;3.50;;;26.10;73.00;;;;;;4966961;28;20557;-74
2023/06/05 12:22:01;;;;;;;5.40;4.03;;;26.10;72.20;;;;;;4965572;28;20984;-74
2023/06/05 12:24:29;;;;;;;7.73;3.93;;;26.20;72.10;;;;;;4970681;28;20525;-74
2023/06/05 12:26:58;;;;;;;5.37;4.33;;;26.20;72.40;;;;;;4970906;28;20465;-74
2023/06/05 12:29:28;;;;;;;4.93;3.93;;;26.10;72.10;;;;;;4969913;28;20821;-73
2023/06/05 12:31:56;;;;;;;6.63;4.50;;;26.10;71.90;;;;;;4968212;28;20904;-75
2023/06/05 12:34:51;;;;;;;5.73;4.00;;;26.00;71.60;;;;;;4971277;28;21049;-74
2023/06/05 12:37:31;;;;;;;5.40;4.10;;;26.00;71.40;;;;;;4959469;28;20483;-75
2023/06/05 12:39:59;;;;;;;7.20;4.03;;;25.80;70.30;;;;;;4975588;28;20440;-72
2023/06/05 12:42:26;;;;;;;6.70;3.30;;;25.70;71.10;;;;;;4963623;28;20493;-75
2023/06/05 12:44:53;;;;;;;4.83;3.90;;;25.90;71.00;;;;;;4966183;28;20440;-73
2023/06/05 12:47:21;;;;;;;6.37;4.90;;;25.80;70.70;;;;;;4968379;28;20880;-74
2023/06/05 12:49:48;;;;;;;7.03;4.40;;;25.90;71.20;;;;;;4965559;28;20811;-73
2023/06/05 12:52:15;;;;;;;7.20;3.80;;;25.90;70.10;;;;;;4964471;28;20465;-73